sensor_id;sensor_type;location;lat;lon;timestamp;pressure;altitude;pressure_sealevel;temperature;humidity
53300;BME280;39187;48.476;8.310;2022-08-19T00:02:23;91093.66;;;17.74;90.48
53300;BME280;39187;48.476;8.310;2022-08-19T00:04:48;91099.53;;;17.73;90.65
53300;BME280;39187;48.476;8.310;2022-08-19T00:07:18;91103.41;;;17.72;90.54
53300;BME280;39187;48.476;8.310;2022-08-19T00:09:44;91100.72;;;17.72;90.60
53300;BME280;39187;48.476;8.310;2022-08-19T00:12:10;91091.44;;;17.73;90.69
53300;BME280;39187;48.476;8.310;2022-08-19T00:14:37;91098.47;;;17.70;90.66
53300;BME280;39187;48.476;8.310;2022-08-19T00:17:04;91091.03;;;17.65;91.03
53300;BME280;39187;48.476;8.310;2022-08-19T00:19:32;91093.56;;;17.69;91.07
53300;BME280;39187;48.476;8.310;2022-08-19T00:21:58;91102.56;;;17.66;90.91
53300;BME280;39187;48.476;8.310;2022-08-19T00:24:24;91104.59;;;17.71;90.49
53300;BME280;39187;48.476;8.310;2022-08-19T00:26:52;91102.66;;;17.71;90.24
53300;BME280;39187;48.476;8.310;2022-08-19T00:29:19;91107.31;;;17.71;90.18
53300;BME280;39187;48.476;8.310;2022-08-19T00:31:46;91086.31;;;17.75;90.27
53300;BME280;39187;48.476;8.310;2022-08-19T00:34:13;91088.91;;;17.69;90.64
53300;BME280;39187;48.476;8.310;2022-08-19T00:36:40;91082.97;;;17.65;91.03
53300;BME280;39187;48.476;8.310;2022-08-19T00:39:07;91083.06;;;17.71;90.59
53300;BME280;39187;48.476;8.310;2022-08-19T00:41:32;91089.22;;;17.71;90.84
53300;BME280;39187;48.476;8.310;2022-08-19T00:44:02;91095.69;;;17.65;91.38
53300;BME280;39187;48.476;8.310;2022-08-19T00:46:29;91093.56;;;17.69;90.98
53300;BME280;39187;48.476;8.310;2022-08-19T00:48:55;91095.50;;;17.68;91.08
53300;BME280;39187;48.476;8.310;2022-08-19T00:51:27;91095.78;;;17.70;91.16
53300;BME280;39187;48.476;8.310;2022-08-19T00:53:55;91088.34;;;17.65;91.49
53300;BME280;39187;48.476;8.310;2022-08-19T00:56:22;91085.94;;;17.67;91.31
53300;BME280;39187;48.476;8.310;2022-08-19T00:58:48;91086.72;;;17.58;92.10
53300;BME280;39187;48.476;8.310;2022-08-19T01:01:15;91074.59;;;17.63;91.89
53300;BME280;39187;48.476;8.310;2022-08-19T01:03:42;91080.28;;;17.65;91.92
53300;BME280;39187;48.476;8.310;2022-08-19T01:06:07;91087.59;;;17.65;92.21
53300;BME280;39187;48.476;8.310;2022-08-19T01:08:33;91083.28;;;17.58;92.56
53300;BME280;39187;48.476;8.310;2022-08-19T01:10:59;91080.91;;;17.60;92.32
53300;BME280;39187;48.476;8.310;2022-08-19T01:13:30;91083.34;;;17.49;93.47
53300;BME280;39187;48.476;8.310;2022-08-19T01:16:02;91082.38;;;17.37;94.32
53300;BME280;39187;48.476;8.310;2022-08-19T01:18:29;91073.84;;;17.39;94.45
53300;BME280;39187;48.476;8.310;2022-08-19T01:20:58;91083.47;;;17.31;94.90
53300;BME280;39187;48.476;8.310;2022-08-19T01:23:26;91067.78;;;17.29;95.03
53300;BME280;39187;48.476;8.310;2022-08-19T01:26:10;91073.34;;;17.02;97.67
53300;BME280;39187;48.476;8.310;2022-08-19T01:28:36;91076.78;;;17.02;97.80
53300;BME280;39187;48.476;8.310;2022-08-19T01:31:02;91076.94;;;17.22;96.25
53300;BME280;39187;48.476;8.310;2022-08-19T01:33:28;91074.94;;;17.32;95.44
53300;BME280;39187;48.476;8.310;2022-08-19T01:36:08;91064.28;;;17.38;95.08
53300;BME280;39187;48.476;8.310;2022-08-19T01:38:36;91068.47;;;17.39;95.20
53300;BME280;39187;48.476;8.310;2022-08-19T01:41:02;91065.81;;;17.30;96.09
53300;BME280;39187;48.476;8.310;2022-08-19T01:43:28;91071.97;;;17.30;95.75
53300;BME280;39187;48.476;8.310;2022-08-19T01:45:54;91071.06;;;17.33;95.73
53300;BME280;39187;48.476;8.310;2022-08-19T01:48:19;91067.88;;;17.35;95.50
53300;BME280;39187;48.476;8.310;2022-08-19T01:50:45;91063.25;;;17.35;95.28
53300;BME280;39187;48.476;8.310;2022-08-19T01:53:11;91060.56;;;17.35;95.35
53300;BME280;39187;48.476;8.310;2022-08-19T01:55:40;91059.38;;;17.36;95.38
53300;BME280;39187;48.476;8.310;2022-08-19T01:58:12;91063.25;;;17.35;95.42
53300;BME280;39187;48.476;8.310;2022-08-19T02:00:38;91054.91;;;17.33;95.71
53300;BME280;39187;48.476;8.310;2022-08-19T02:03:04;91051.19;;;17.31;95.94
53300;BME280;39187;48.476;8.310;2022-08-19T02:05:29;91054.31;;;17.29;96.19
53300;BME280;39187;48.476;8.310;2022-08-19T02:07:56;91047.19;;;17.26;96.88
53300;BME280;39187;48.476;8.310;2022-08-19T02:10:22;91044.94;;;17.24;97.34
53300;BME280;39187;48.476;8.310;2022-08-19T02:12:49;91037.63;;;17.25;97.06
53300;BME280;39187;48.476;8.310;2022-08-19T02:15:16;91045.41;;;17.23;97.44
53300;BME280;39187;48.476;8.310;2022-08-19T02:17:41;91054.66;;;17.22;97.37
53300;BME280;39187;48.476;8.310;2022-08-19T02:20:08;91060.97;;;17.19;97.79
53300;BME280;39187;48.476;8.310;2022-08-19T02:22:34;91057.34;;;16.98;100.00
53300;BME280;39187;48.476;8.310;2022-08-19T02:25:01;91060.75;;;17.08;100.00
53300;BME280;39187;48.476;8.310;2022-08-19T02:27:27;91056.88;;;17.09;100.00
53300;BME280;39187;48.476;8.310;2022-08-19T02:29:53;91056.38;;;17.10;100.00
53300;BME280;39187;48.476;8.310;2022-08-19T02:32:19;91065.72;;;17.00;100.00
53300;BME280;39187;48.476;8.310;2022-08-19T02:34:46;91058.50;;;17.06;100.00
53300;BME280;39187;48.476;8.310;2022-08-19T02:37:12;91063.44;;;17.08;100.00
53300;BME280;39187;48.476;8.310;2022-08-19T02:39:57;91053.59;;;17.05;100.00
53300;BME280;39187;48.476;8.310;2022-08-19T02:42:23;91050.44;;;17.06;100.00
53300;BME280;39187;48.476;8.310;2022-08-19T02:44:49;91044.50;;;17.02;100.00
53300;BME280;39187;48.476;8.310;2022-08-19T02:47:15;91040.78;;;17.00;100.00
53300;BME280;39187;48.476;8.310;2022-08-19T02:49:41;91040.06;;;16.90;100.00
53300;BME280;39187;48.476;8.310;2022-08-19T02:52:07;91044.97;;;16.68;100.00
53300;BME280;39187;48.476;8.310;2022-08-19T02:54:32;91047.25;;;16.84;100.00
53300;BME280;39187;48.476;8.310;2022-08-19T02:56:58;91050.25;;;16.86;100.00
53300;BME280;39187;48.476;8.310;2022-08-19T02:59:23;91042.97;;;16.77;100.00
53300;BME280;39187;48.476;8.310;2022-08-19T03:01:51;91051.53;;;16.67;100.00
53300;BME280;39187;48.476;8.310;2022-08-19T03:04:17;91040.00;;;16.75;100.00
53300;BME280;39187;48.476;8.310;2022-08-19T03:06:46;91037.72;;;16.83;100.00
53300;BME280;39187;48.476;8.310;2022-08-19T03:09:13;91038.41;;;16.69;100.00
53300;BME280;39187;48.476;8.310;2022-08-19T03:11:40;91048.97;;;16.72;100.00
53300;BME280;39187;48.476;8.310;2022-08-19T03:14:06;91054.00;;;16.79;100.00
53300;BME280;39187;48.476;8.310;2022-08-19T03:16:40;91053.25;;;16.79;100.00
53300;BME280;39187;48.476;8.310;2022-08-19T03:19:07;91051.03;;;16.77;100.00
53300;BME280;39187;48.476;8.310;2022-08-19T03:21:33;91055.22;;;16.78;100.00
53300;BME280;39187;48.476;8.310;2022-08-19T03:24:05;91060.75;;;16.75;100.00
53300;BME280;39187;48.476;8.310;2022-08-19T03:26:32;91061.53;;;16.66;100.00
53300;BME280;39187;48.476;8.310;2022-08-19T03:29:02;91069.84;;;16.77;100.00
53300;BME280;39187;48.476;8.310;2022-08-19T03:31:27;91076.72;;;16.78;100.00
53300;BME280;39187;48.476;8.310;2022-08-19T03:33:53;91075.50;;;16.79;100.00
53300;BME280;39187;48.476;8.310;2022-08-19T03:36:22;91080.88;;;16.79;100.00
53300;BME280;39187;48.476;8.310;2022-08-19T03:38:56;91078.66;;;16.78;100.00
53300;BME280;39187;48.476;8.310;2022-08-19T03:41:24;91073.44;;;16.74;100.00
53300;BME280;39187;48.476;8.310;2022-08-19T03:43:51;91067.63;;;16.76;100.00
53300;BME280;39187;48.476;8.310;2022-08-19T03:46:20;91069.13;;;16.77;100.00
53300;BME280;39187;48.476;8.310;2022-08-19T03:48:48;91061.22;;;16.73;100.00
53300;BME280;39187;48.476;8.310;2022-08-19T03:51:18;91063.16;;;16.73;100.00
53300;BME280;39187;48.476;8.310;2022-08-19T03:53:45;91055.25;;;16.69;100.00
53300;BME280;39187;48.476;8.310;2022-08-19T03:56:11;91064.81;;;16.70;100.00
53300;BME280;39187;48.476;8.310;2022-08-19T03:58:37;91070.91;;;16.71;100.00
53300;BME280;39187;48.476;8.310;2022-08-19T04:01:08;91071.22;;;16.73;100.00
53300;BME280;39187;48.476;8.310;2022-08-19T04:03:33;91070.47;;;16.72;100.00
53300;BME280;39187;48.476;8.310;2022-08-19T04:06:18;91073.78;;;16.67;100.00
53300;BME280;39187;48.476;8.310;2022-08-19T04:08:48;91073.78;;;16.67;100.00
53300;BME280;39187;48.476;8.310;2022-08-19T04:11:17;91068.28;;;16.62;100.00
53300;BME280;39187;48.476;8.310;2022-08-19T04:13:43;91060.50;;;16.64;100.00
53300;BME280;39187;48.476;8.310;2022-08-19T04:16:10;91061.72;;;16.63;100.00
53300;BME280;39187;48.476;8.310;2022-08-19T04:18:38;91057.09;;;16.63;100.00
53300;BME280;39187;48.476;8.310;2022-08-19T04:21:04;91069.03;;;16.62;100.00
53300;BME280;39187;48.476;8.310;2022-08-19T04:23:31;91072.56;;;16.59;100.00
53300;BME280;39187;48.476;8.310;2022-08-19T04:25:57;91076.16;;;16.65;100.00
53300;BME280;39187;48.476;8.310;2022-08-19T04:28:23;91071.72;;;16.62;100.00
53300;BME280;39187;48.476;8.310;2022-08-19T04:30:52;91068.28;;;16.62;100.00
53300;BME280;39187;48.476;8.310;2022-08-19T04:33:21;91068.56;;;16.64;100.00
53300;BME280;39187;48.476;8.310;2022-08-19T04:35:48;91067.38;;;16.56;100.00
53300;BME280;39187;48.476;8.310;2022-08-19T04:38:16;91069.28;;;16.64;100.00
53300;BME280;39187;48.476;8.310;2022-08-19T04:40:46;91076.63;;;16.64;100.00
53300;BME280;39187;48.476;8.310;2022-08-19T04:43:31;91073.78;;;16.58;100.00
53300;BME280;39187;48.476;8.310;2022-08-19T04:45:57;91074.53;;;16.59;100.00
53300;BME280;39187;48.476;8.310;2022-08-19T04:48:24;91079.50;;;16.42;100.00
53300;BME280;39187;48.476;8.310;2022-08-19T04:50:54;91076.34;;;16.53;100.00
53300;BME280;39187;48.476;8.310;2022-08-19T04:53:24;91076.03;;;16.60;100.00
53300;BME280;39187;48.476;8.310;2022-08-19T04:55:50;91077.81;;;16.54;100.00
53300;BME280;39187;48.476;8.310;2022-08-19T04:58:16;91077.19;;;16.59;100.00
53300;BME280;39187;48.476;8.310;2022-08-19T05:00:42;91075.88;;;16.54;100.00
53300;BME280;39187;48.476;8.310;2022-08-19T05:03:09;91078.88;;;16.56;100.00
53300;BME280;39187;48.476;8.310;2022-08-19T05:05:38;91081.28;;;16.63;100.00
53300;BME280;39187;48.476;8.310;2022-08-19T05:08:04;91088.59;;;16.63;100.00
53300;BME280;39187;48.476;8.310;2022-08-19T05:10:31;91093.22;;;16.62;100.00
53300;BME280;39187;48.476;8.310;2022-08-19T05:12:56;91104.72;;;16.44;100.00
53300;BME280;39187;48.476;8.310;2022-08-19T05:15:22;91102.44;;;16.52;100.00
53300;BME280;39187;48.476;8.310;2022-08-19T05:17:48;91104.81;;;16.59;100.00
53300;BME280;39187;48.476;8.310;2022-08-19T05:20:32;91110.81;;;16.54;100.00
53300;BME280;39187;48.476;8.310;2022-08-19T05:23:16;91101.44;;;16.40;100.00
53300;BME280;39187;48.476;8.310;2022-08-19T05:25:42;91108.56;;;16.53;100.00
53300;BME280;39187;48.476;8.310;2022-08-19T05:28:08;91110.50;;;16.52;100.00
53300;BME280;39187;48.476;8.310;2022-08-19T05:30:34;91117.50;;;16.59;100.00
53300;BME280;39187;48.476;8.310;2022-08-19T05:32:59;91121.13;;;16.56;100.00
53300;BME280;39187;48.476;8.310;2022-08-19T05:35:25;91113.66;;;16.60;100.00
53300;BME280;39187;48.476;8.310;2022-08-19T05:37:51;91123.06;;;16.55;100.00
53300;BME280;39187;48.476;8.310;2022-08-19T05:40:19;91122.47;;;16.60;100.00
53300;BME280;39187;48.476;8.310;2022-08-19T05:42:45;91120.81;;;16.54;100.00
53300;BME280;39187;48.476;8.310;2022-08-19T05:45:11;91118.44;;;16.47;100.00
53300;BME280;39187;48.476;8.310;2022-08-19T05:47:37;91129.63;;;16.63;100.00
53300;BME280;39187;48.476;8.310;2022-08-19T05:50:03;91120.94;;;16.59;100.00
53300;BME280;39187;48.476;8.310;2022-08-19T05:52:29;91131.56;;;16.63;100.00
53300;BME280;39187;48.476;8.310;2022-08-19T05:54:55;91133.84;;;16.37;100.00
53300;BME280;39187;48.476;8.310;2022-08-19T05:57:21;91126.63;;;16.52;100.00
53300;BME280;39187;48.476;8.310;2022-08-19T05:59:47;91128.88;;;16.54;100.00
53300;BME280;39187;48.476;8.310;2022-08-19T06:02:13;91135.47;;;16.62;100.00
53300;BME280;39187;48.476;8.310;2022-08-19T06:04:39;91127.84;;;16.60;100.00
53300;BME280;39187;48.476;8.310;2022-08-19T06:07:08;91133.06;;;16.64;100.00
53300;BME280;39187;48.476;8.310;2022-08-19T06:09:33;91143.63;;;16.58;100.00
53300;BME280;39187;48.476;8.310;2022-08-19T06:12:00;91142.91;;;16.67;100.00
53300;BME280;39187;48.476;8.310;2022-08-19T06:14:30;91143.97;;;16.60;100.00
53300;BME280;39187;48.476;8.310;2022-08-19T06:16:57;91143.19;;;16.69;100.00
53300;BME280;39187;48.476;8.310;2022-08-19T06:19:25;91152.59;;;16.73;100.00
53300;BME280;39187;48.476;8.310;2022-08-19T06:21:52;91152.16;;;16.48;100.00
53300;BME280;39187;48.476;8.310;2022-08-19T06:24:21;91156.66;;;16.60;100.00
53300;BME280;39187;48.476;8.310;2022-08-19T06:26:50;91158.28;;;16.66;100.00
53300;BME280;39187;48.476;8.310;2022-08-19T06:29:20;91159.47;;;16.74;100.00
53300;BME280;39187;48.476;8.310;2022-08-19T06:31:48;91161.38;;;16.83;100.00
53300;BME280;39187;48.476;8.310;2022-08-19T06:34:17;91151.81;;;16.82;100.00
53300;BME280;39187;48.476;8.310;2022-08-19T06:36:46;91164.50;;;16.81;100.00
53300;BME280;39187;48.476;8.310;2022-08-19T06:39:17;91168.69;;;16.82;100.00
53300;BME280;39187;48.476;8.310;2022-08-19T06:41:46;91170.16;;;16.83;100.00
53300;BME280;39187;48.476;8.310;2022-08-19T06:44:13;91165.22;;;16.91;100.00
53300;BME280;39187;48.476;8.310;2022-08-19T06:46:40;91172.69;;;16.96;100.00
53300;BME280;39187;48.476;8.310;2022-08-19T06:49:07;91171.22;;;16.86;100.00
53300;BME280;39187;48.476;8.310;2022-08-19T06:51:35;91175.38;;;16.96;100.00
53300;BME280;39187;48.476;8.310;2022-08-19T06:54:01;91173.41;;;16.97;100.00
53300;BME280;39187;48.476;8.310;2022-08-19T06:56:29;91170.16;;;16.93;100.00
53300;BME280;39187;48.476;8.310;2022-08-19T06:59:06;91167.88;;;17.00;100.00
53300;BME280;39187;48.476;8.310;2022-08-19T07:01:41;91161.44;;;17.07;100.00
53300;BME280;39187;48.476;8.310;2022-08-19T07:04:08;91150.50;;;17.10;100.00
53300;BME280;39187;48.476;8.310;2022-08-19T07:06:36;91157.25;;;17.06;100.00
53300;BME280;39187;48.476;8.310;2022-08-19T07:09:04;91159.06;;;17.09;100.00
53300;BME280;39187;48.476;8.310;2022-08-19T07:11:30;91154.94;;;17.22;100.00
53300;BME280;39187;48.476;8.310;2022-08-19T07:13:56;91158.66;;;17.25;100.00
53300;BME280;39187;48.476;8.310;2022-08-19T07:16:22;91154.72;;;17.35;100.00
53300;BME280;39187;48.476;8.310;2022-08-19T07:18:49;91147.69;;;17.38;100.00
53300;BME280;39187;48.476;8.310;2022-08-19T07:21:19;91161.56;;;17.45;100.00
53300;BME280;39187;48.476;8.310;2022-08-19T07:23:45;91156.75;;;17.49;100.00
53300;BME280;39187;48.476;8.310;2022-08-19T07:26:21;91166.34;;;17.41;100.00
53300;BME280;39187;48.476;8.310;2022-08-19T07:28:47;91161.88;;;17.38;100.00
53300;BME280;39187;48.476;8.310;2022-08-19T07:31:17;91159.88;;;17.48;100.00
53300;BME280;39187;48.476;8.310;2022-08-19T07:33:44;91160.03;;;17.20;100.00
53300;BME280;39187;48.476;8.310;2022-08-19T07:36:13;91164.59;;;17.38;100.00
53300;BME280;39187;48.476;8.310;2022-08-19T07:38:45;91169.97;;;17.38;100.00
53300;BME280;39187;48.476;8.310;2022-08-19T07:41:16;91166.50;;;17.47;100.00
53300;BME280;39187;48.476;8.310;2022-08-19T07:43:42;91162.34;;;17.37;100.00
53300;BME280;39187;48.476;8.310;2022-08-19T07:46:09;91160.16;;;17.26;100.00
53300;BME280;39187;48.476;8.310;2022-08-19T07:48:36;91154.97;;;17.46;100.00
53300;BME280;39187;48.476;8.310;2022-08-19T07:51:05;91153.00;;;17.23;100.00
53300;BME280;39187;48.476;8.310;2022-08-19T07:53:31;91155.53;;;17.50;99.69
53300;BME280;39187;48.476;8.310;2022-08-19T07:55:58;91156.25;;;17.60;98.80
53300;BME280;39187;48.476;8.310;2022-08-19T07:58:36;91162.53;;;17.57;98.73
53300;BME280;39187;48.476;8.310;2022-08-19T08:01:05;91163.81;;;17.47;98.71
53300;BME280;39187;48.476;8.310;2022-08-19T08:03:31;91166.13;;;17.54;98.67
53300;BME280;39187;48.476;8.310;2022-08-19T08:06:16;91162.56;;;17.24;99.41
53300;BME280;39187;48.476;8.310;2022-08-19T08:09:01;91158.53;;;17.19;100.00
53300;BME280;39187;48.476;8.310;2022-08-19T08:11:53;91167.25;;;17.14;100.00
53300;BME280;39187;48.476;8.310;2022-08-19T08:14:24;91175.75;;;17.13;100.00
53300;BME280;39187;48.476;8.310;2022-08-19T08:16:51;91181.75;;;17.08;100.00
53300;BME280;39187;48.476;8.310;2022-08-19T08:19:19;91182.88;;;17.25;100.00
53300;BME280;39187;48.476;8.310;2022-08-19T08:21:45;91178.16;;;17.11;100.00
53300;BME280;39187;48.476;8.310;2022-08-19T08:24:11;91179.78;;;17.41;98.77
53300;BME280;39187;48.476;8.310;2022-08-19T08:26:38;91181.00;;;17.07;100.00
53300;BME280;39187;48.476;8.310;2022-08-19T08:29:03;91186.50;;;17.13;100.00
53300;BME280;39187;48.476;8.310;2022-08-19T08:31:29;91185.50;;;17.01;100.00
53300;BME280;39187;48.476;8.310;2022-08-19T08:33:55;91186.19;;;17.20;100.00
53300;BME280;39187;48.476;8.310;2022-08-19T08:36:21;91195.56;;;17.24;100.00
53300;BME280;39187;48.476;8.310;2022-08-19T08:38:46;91193.72;;;17.07;100.00
53300;BME280;39187;48.476;8.310;2022-08-19T08:43:54;91190.78;;;16.87;100.00
53300;BME280;39187;48.476;8.310;2022-08-19T08:51:44;91198.41;;;17.30;100.00
53300;BME280;39187;48.476;8.310;2022-08-19T08:54:14;91196.22;;;17.10;100.00
53300;BME280;39187;48.476;8.310;2022-08-19T08:56:44;91209.88;;;17.40;98.78
53300;BME280;39187;48.476;8.310;2022-08-19T08:59:24;91206.38;;;17.15;98.96
53300;BME280;39187;48.476;8.310;2022-08-19T09:01:51;91211.59;;;17.19;99.41
53300;BME280;39187;48.476;8.310;2022-08-19T09:04:17;91217.47;;;17.08;99.50
53300;BME280;39187;48.476;8.310;2022-08-19T09:06:55;91223.34;;;17.31;99.25
53300;BME280;39187;48.476;8.310;2022-08-19T09:09:30;91222.66;;;17.21;99.50
53300;BME280;39187;48.476;8.310;2022-08-19T09:17:25;91216.34;;;17.57;96.61
53300;BME280;39187;48.476;8.310;2022-08-19T09:20:21;91223.84;;;17.62;96.11
53300;BME280;39187;48.476;8.310;2022-08-19T09:22:47;91225.38;;;17.45;95.72
53300;BME280;39187;48.476;8.310;2022-08-19T09:25:17;91222.25;;;17.46;96.02
53300;BME280;39187;48.476;8.310;2022-08-19T09:27:44;91218.63;;;17.49;94.66
53300;BME280;39187;48.476;8.310;2022-08-19T09:30:16;91223.91;;;17.77;93.38
53300;BME280;39187;48.476;8.310;2022-08-19T09:32:43;91218.66;;;17.82;94.41
53300;BME280;39187;48.476;8.310;2022-08-19T09:35:10;91218.75;;;18.12;93.79
53300;BME280;39187;48.476;8.310;2022-08-19T09:37:36;91208.72;;;18.12;91.73
53300;BME280;39187;48.476;8.310;2022-08-19T09:40:02;91206.53;;;18.25;92.21
53300;BME280;39187;48.476;8.310;2022-08-19T09:42:28;91216.09;;;18.26;91.35
53300;BME280;39187;48.476;8.310;2022-08-19T09:44:54;91205.47;;;18.47;89.49
53300;BME280;39187;48.476;8.310;2022-08-19T09:47:19;91210.00;;;18.40;87.61
53300;BME280;39187;48.476;8.310;2022-08-19T09:49:45;91216.78;;;18.51;87.82
53300;BME280;39187;48.476;8.310;2022-08-19T09:52:11;91217.03;;;18.76;87.06
53300;BME280;39187;48.476;8.310;2022-08-19T09:54:38;91224.28;;;18.70;86.96
53300;BME280;39187;48.476;8.310;2022-08-19T09:57:04;91223.84;;;18.87;85.83
53300;BME280;39187;48.476;8.310;2022-08-19T09:59:30;91228.50;;;18.86;85.44
53300;BME280;39187;48.476;8.310;2022-08-19T10:01:56;91235.91;;;18.76;85.76
53300;BME280;39187;48.476;8.310;2022-08-19T10:04:22;91240.47;;;18.70;85.93
53300;BME280;39187;48.476;8.310;2022-08-19T10:06:49;91243.28;;;18.91;85.15
53300;BME280;39187;48.476;8.310;2022-08-19T10:09:17;91237.53;;;18.98;84.45
53300;BME280;39187;48.476;8.310;2022-08-19T10:11:44;91245.69;;;18.74;84.33
53300;BME280;39187;48.476;8.310;2022-08-19T10:14:15;91242.44;;;18.85;83.42
53300;BME280;39187;48.476;8.310;2022-08-19T10:16:42;91242.00;;;19.15;83.00
53300;BME280;39187;48.476;8.310;2022-08-19T10:19:08;91241.31;;;19.20;83.22
53300;BME280;39187;48.476;8.310;2022-08-19T10:21:35;91247.97;;;19.19;83.79
53300;BME280;39187;48.476;8.310;2022-08-19T10:24:04;91252.78;;;19.15;84.84
53300;BME280;39187;48.476;8.310;2022-08-19T10:26:35;91244.09;;;19.41;83.97
53300;BME280;39187;48.476;8.310;2022-08-19T10:29:03;91241.34;;;19.50;82.56
53300;BME280;39187;48.476;8.310;2022-08-19T10:31:32;91240.59;;;19.49;83.21
53300;BME280;39187;48.476;8.310;2022-08-19T10:33:58;91244.66;;;19.59;82.88
53300;BME280;39187;48.476;8.310;2022-08-19T10:36:28;91244.09;;;19.70;82.32
53300;BME280;39187;48.476;8.310;2022-08-19T10:38:56;91243.91;;;19.74;82.08
53300;BME280;39187;48.476;8.310;2022-08-19T10:41:27;91243.66;;;19.92;81.23
53300;BME280;39187;48.476;8.310;2022-08-19T10:43:54;91237.13;;;19.98;79.69
53300;BME280;39187;48.476;8.310;2022-08-19T10:46:21;91234.09;;;20.11;80.30
53300;BME280;39187;48.476;8.310;2022-08-19T10:48:48;91236.78;;;20.46;77.87
53300;BME280;39187;48.476;8.310;2022-08-19T10:51:14;91234.66;;;20.56;77.52
53300;BME280;39187;48.476;8.310;2022-08-19T10:54:00;91227.78;;;20.80;75.94
53300;BME280;39187;48.476;8.310;2022-08-19T10:56:26;91231.41;;;20.72;75.11
53300;BME280;39187;48.476;8.310;2022-08-19T10:59:11;91246.56;;;20.44;75.91
53300;BME280;39187;48.476;8.310;2022-08-19T11:01:39;91248.50;;;20.63;76.23
53300;BME280;39187;48.476;8.310;2022-08-19T11:04:05;91242.97;;;20.72;75.52
53300;BME280;39187;48.476;8.310;2022-08-19T11:06:34;91238.25;;;20.67;74.89
53300;BME280;39187;48.476;8.310;2022-08-19T11:08:59;91231.44;;;20.77;75.19
53300;BME280;39187;48.476;8.310;2022-08-19T11:11:25;91240.47;;;20.95;75.00
53300;BME280;39187;48.476;8.310;2022-08-19T11:13:51;91243.91;;;20.95;75.58
53300;BME280;39187;48.476;8.310;2022-08-19T11:16:23;91244.13;;;20.46;78.28
53300;BME280;39187;48.476;8.310;2022-08-19T11:18:56;91246.19;;;20.76;77.24
53300;BME280;39187;48.476;8.310;2022-08-19T11:21:32;91242.84;;;20.87;76.02
53300;BME280;39187;48.476;8.310;2022-08-19T11:24:01;91239.47;;;20.92;75.00
53300;BME280;39187;48.476;8.310;2022-08-19T11:26:29;91231.84;;;20.91;74.86
53300;BME280;39187;48.476;8.310;2022-08-19T11:28:57;91235.66;;;21.04;74.13
53300;BME280;39187;48.476;8.310;2022-08-19T11:31:26;91237.53;;;21.18;74.16
53300;BME280;39187;48.476;8.310;2022-08-19T11:33:52;91245.97;;;21.26;74.51
53300;BME280;39187;48.476;8.310;2022-08-19T11:36:20;91234.34;;;21.20;74.79
53300;BME280;39187;48.476;8.310;2022-08-19T11:38:49;91232.53;;;21.11;75.17
53300;BME280;39187;48.476;8.310;2022-08-19T11:41:18;91231.97;;;21.07;75.31
53300;BME280;39187;48.476;8.310;2022-08-19T11:43:44;91235.97;;;21.12;74.57
53300;BME280;39187;48.476;8.310;2022-08-19T11:46:14;91233.75;;;21.36;73.71
53300;BME280;39187;48.476;8.310;2022-08-19T11:48:40;91232.78;;;21.13;75.22
53300;BME280;39187;48.476;8.310;2022-08-19T11:51:11;91245.94;;;21.00;76.77
53300;BME280;39187;48.476;8.310;2022-08-19T11:53:38;91243.50;;;21.02;75.95
53300;BME280;39187;48.476;8.310;2022-08-19T11:56:07;91242.44;;;20.94;76.12
53300;BME280;39187;48.476;8.310;2022-08-19T11:58:34;91241.69;;;20.94;74.46
53300;BME280;39187;48.476;8.310;2022-08-19T12:00:59;91251.50;;;20.65;75.28
53300;BME280;39187;48.476;8.310;2022-08-19T12:03:25;91247.50;;;20.61;76.40
53300;BME280;39187;48.476;8.310;2022-08-19T12:05:51;91251.22;;;20.63;75.96
53300;BME280;39187;48.476;8.310;2022-08-19T12:08:18;91243.75;;;20.78;76.30
53300;BME280;39187;48.476;8.310;2022-08-19T12:10:44;91244.88;;;20.92;75.23
53300;BME280;39187;48.476;8.310;2022-08-19T12:13:12;91235.06;;;20.95;75.48
53300;BME280;39187;48.476;8.310;2022-08-19T12:15:40;91237.25;;;21.42;72.96
53300;BME280;39187;48.476;8.310;2022-08-19T12:18:08;91238.22;;;21.45;72.18
53300;BME280;39187;48.476;8.310;2022-08-19T12:20:39;91239.63;;;21.35;72.70
53300;BME280;39187;48.476;8.310;2022-08-19T12:23:05;91232.97;;;21.30;72.11
53300;BME280;39187;48.476;8.310;2022-08-19T12:25:31;91234.25;;;21.14;72.42
53300;BME280;39187;48.476;8.310;2022-08-19T12:27:58;91237.53;;;21.18;69.99
53300;BME280;39187;48.476;8.310;2022-08-19T12:30:24;91238.38;;;21.30;70.17
53300;BME280;39187;48.476;8.310;2022-08-19T12:32:50;91242.78;;;21.28;68.86
53300;BME280;39187;48.476;8.310;2022-08-19T12:35:16;91241.19;;;21.15;69.07
53300;BME280;39187;48.476;8.310;2022-08-19T12:37:42;91237.34;;;21.28;68.37
53300;BME280;39187;48.476;8.310;2022-08-19T12:40:10;91246.00;;;21.32;68.58
53300;BME280;39187;48.476;8.310;2022-08-19T12:42:38;91250.03;;;21.42;69.11
53300;BME280;39187;48.476;8.310;2022-08-19T12:45:11;91252.66;;;21.31;69.79
53300;BME280;39187;48.476;8.310;2022-08-19T12:47:38;91243.75;;;21.56;68.14
53300;BME280;39187;48.476;8.310;2022-08-19T12:50:05;91245.38;;;21.42;68.45
53300;BME280;39187;48.476;8.310;2022-08-19T12:52:34;91245.09;;;21.40;68.81
53300;BME280;39187;48.476;8.310;2022-08-19T12:55:03;91248.81;;;21.43;68.46
53300;BME280;39187;48.476;8.310;2022-08-19T12:57:29;91248.06;;;21.42;68.11
53300;BME280;39187;48.476;8.310;2022-08-19T13:00:06;91243.13;;;21.15;68.45
53300;BME280;39187;48.476;8.310;2022-08-19T13:02:37;91247.78;;;21.14;69.23
53300;BME280;39187;48.476;8.310;2022-08-19T13:05:03;91247.38;;;20.96;70.21
53300;BME280;39187;48.476;8.310;2022-08-19T13:07:31;91251.19;;;21.09;67.90
53300;BME280;39187;48.476;8.310;2022-08-19T13:09:57;91247.00;;;21.08;68.72
53300;BME280;39187;48.476;8.310;2022-08-19T13:12:22;91250.00;;;21.36;67.79
53300;BME280;39187;48.476;8.310;2022-08-19T13:14:52;91250.97;;;21.39;67.83